AirNav   Everest Fuels
 
 377 users online  

KMLD Malad City Airport
Malad City, Idaho, USA

GOING TO MALAD CITY?


FAA INFORMATION EFFECTIVE 18 JUNE 2020

Location

FAA Identifier: MLD
Lat/Long: 42-10-13.6000N 112-17-21.5000W
42-10.226667N 112-17.358333W
42.1704444,-112.2893056
(estimated)
Elevation: 4503 ft. / 1373 m (estimated)
Variation: 15E (1985)
From city: 3 miles SW of MALAD CITY, ID
Time zone: UTC -6 (UTC -7 during Standard Time)
Zip code: 83252

Airport Operations

Airport use: Open to the public
Activation date: 03/1945
Control tower: no
ARTCC: SALT LAKE CITY CENTER
FSS: BOISE FLIGHT SERVICE STATION
NOTAMs facility: MLD (NOTAM-D service available)
Attendance: UNATNDD
Wind indicator: lighted
Segmented circle: yes
Lights: ACTVT MIRL RY 16/34 - CTAF.
Beacon: white-green (lighted land airport)
Operates sunset to sunrise.

Airport Communications

CTAF: 122.9

Nearby radio navigation aids

VOR radial/distance  VOR name  Freq  Var
MLDr087/7.4MALAD CITY VOR/DME117.4017E
LHOr317/25.9BRIGHAM CITY VOR/DME112.9014E

Airport Services

Fuel available: 100LL
FOR FUEL CALL 208-221-9031. GAS PUMP IS CREDIT CARD OPR.
Parking: tiedowns
Airframe service: NONE
Powerplant service: NONE
Bottled oxygen: NONE
Bulk oxygen: NONE

Runway Information

Runway 16/34

Dimensions: 4950 x 60 ft. / 1509 x 18 m
ASPH PAVEMENT IS 60' WIDE, 45' WIDE ASPHALT-TREATED SHOULDERS ON EACH SIDE OF PAVEMENT.
Surface: asphalt, in poor condition
ASPH HAS LOTS OF LONGL & TRANSVERSAL CRACKS; SOME UP TO 2 IN IN WID. RWY EDGES ARE EXPERIENCING SPIDER WEB TYPE CRACKING.
Runway edge lights: medium intensity
Runway edge markings: 16/34 NO DSPLCD THLD ARROWS; MKD BY DSPLCD THLD LIGHTS AND THLD PAINTED BAR.
RUNWAY 16  RUNWAY 34
Latitude: 42-10.634333N42-09.820000N
Longitude: 112-17.358000W112-17.358000W
Traffic pattern: leftleft
Displaced threshold: 150 ft.210 ft.
Markings: basic, in good conditionbasic, in good condition
Obstructions: 20 ft. other, 900 ft. from runway, 35:1 slope to clear
RWY 16 + 3 FT FENCE AT 100 FT & 180 FT ON CNTRLN; 15 FT ROAD AT 160 FT ON CNTRLN.
45 ft. pline, 2300 ft. from runway, 46:1 slope to clear
+4' FENCE AT 60' ON CNTRLN; 15' ROAD AT 80' ON CNTRLN.

Airport Ownership and Management from official FAA records

Ownership: Publicly-owned
Owner: ONEIDA COUNTY
10 COURT STREET
MALAD CITY, ID 83252
Phone 208-766-4116
Manager: TERRY DAVIS
10 COURT STREET
MALAD CITY, ID 83252
Phone (208) 766-3314

Airport Operational Statistics

Aircraft based on the field: 5
Single engine airplanes: 5
    
Aircraft operations: avg 85/week *
95% transient general aviation
5% local general aviation
<1% military
* for 12-month period ending 30 June 2019

Additional Remarks

REFLECTORS ON TWY AND RAMP.
FOR CD IF UNA TO CTC ON FSS FREQ, CTC SALT LAKE ARTCC AT 801-320-2568.

Instrument Procedures

There are no published instrument procedures at KMLD.

Some nearby airports with instrument procedures:

KLGU - Logan-Cache Airport (30 nm SE)
KBMC - Brigham City Regional Airport (38 nm S)
1U7 - Bear Lake County Airport (42 nm E)
KPIH - Pocatello Regional Airport (46 nm N)
KOGD - Ogden-Hinckley Airport (60 nm S)
 
Loc | Ops | Rwys | IFR | FBO | Links
Com | Nav | Svcs | Stats | Notes
Area around KMLD (Malad City Airport)
 
Road maps at: MapQuest Bing Google
 
Aerial photo
WARNING: Photo may not be current or correct
Aerial photo of KMLD (Malad City Airport)
Photo by Mitch Bowers
www.imagewerx.us
Photo taken 30-Jun-2018
looking north.

Do you have a better or more recent aerial photo of Malad City Airport that you would like to share? If so, please send us your photo.

 
Sectional chart

 
Airport distance calculator
Flying to Malad City Airport? Find the distance to fly.

From to KMLD

Sunrise and sunset
Times for 04-Jul-2020
 Local
(UTC-6)
 Zulu
(UTC)
Morning civil twilight05:2611:26
Sunrise06:0012:00
Sunset21:0703:07
Evening civil twilight21:4203:42

Current date and time
Zulu (UTC)  04-Jul-2020 06:04:04
Local (UTC-6)  04-Jul-2020 00:04:04
 
METAR
KLGU 
30nm SE 
040551Z AUTO 00000KT 10SM CLR 19/13 A3003 RMK AO2 SLP110 T01940128 10339 20178 50006
KBMC 
38nm S 
040530Z AUTO 14008KT 10SM CLR 26/04 A3000 RMK AO1 T02620036
K1U7 
42nm E 
040555Z AUTO 00000KT 10SM CLR 12/12 A3016 RMK A01
KPIH 
46nm N 
040553Z AUTO 00000KT 10SM CLR 18/07 A3006 RMK AO2 SLP129 T01780072 10317 20172 51013
TAF
KLGU 
30nm SE 
040521Z 0406/0506 VRB04KT P6SM FEW150 FM042000 22008KT P6SM SKC
NOTAMs
Click for the latest NOTAMs
NOTAMs are issued by the DoD/FAA and will open in a separate window not controlled by AirNav.

 

 
 

FBO, Fuel Providers, and Aircraft Ground Support

  
 Business Name 
 
 Contact 
 
 Services / Description 
 
Fuel Prices
 
Comments
  
Malad City Airport 208-766-3804
no information available

If you are affiliated with Malad City Airport and would like to show here your services, contact info, web link, logo, and more, click here
100LL
SS $4.06 
 Updated 30-Jun-2020
 
   write
SS=Self service
Update Fuel Prices
 

Would you like to see your business listed on this page?

 If your business provides an interesting product or service to pilots, flight crews, aircraft, or users of the Malad City Airport, you should consider listing it here.  To start the listing process, click on the button below
 
Add a business
 

Other Pages about Malad City Airport

Update a link
 
Copyright © AirNav, LLC. All rights reserved. Privacy Policy  Contact